Time;durP1;ratioP1;P1;durP2;ratioP2;P2;SDS_P1;SDS_P2;PMS_P1;PMS_P2;Temp;Humidity;BMP_temperature;BMP_pressure;BME280_temperature;BME280_humidity;BME280_pressure;Samples;Min_cycle;Max_cycle;Signal;HPM_P1;HPM_P2
2023/04/03 00:02:40;;;;;;;2.17;0.57;;;;;;;;;;4684731;22;20497;-77
2023/04/03 00:05:09;;;;;;;0.93;0.50;;;;;;;;;;4936648;29;20118;-77
2023/04/03 00:07:37;;;;;;;2.42;0.98;;;;;;;;;;4964988;28;20444;-77
2023/04/03 00:10:22;;;;;;;4.75;0.80;;;;;;;;;;5018071;28;20029;-77
2023/04/03 00:13:19;;;;;;;3.25;1.02;;;;;;;;;;5018334;28;20048;-77
2023/04/03 00:16:12;;;;;;;3.00;0.60;;;;;;;;;;5022408;28;20048;-78
2023/04/03 00:46:41;;;;;;;0.98;0.50;;;;;;;;;;4973854;28;20042;-76
2023/04/03 00:49:47;;;;;;;4.25;1.20;;;;;;;;;;4974087;28;20035;-77
2023/04/03 01:00:07;;;;;;;;;;;;;;;;;;;;;
2023/04/03 01:06:10;;;;;;;2.58;0.80;;;;;;;;;;4917799;29;20047;-77
2023/04/03 01:12:59;;;;;;;;;;;;;;;;;;;;;
2023/04/03 01:16:05;;;;;;;7.35;1.25;;;;;;;;;;5016245;28;20018;-78
2023/04/03 01:19:26;;;;;;;4.45;1.08;;;;;;;;;;5015317;28;20021;-77
2023/04/03 01:29:48;;;;;;;;;;;;;;;;;;;;;
2023/04/03 01:33:09;;;;;;;1.67;1.00;;;;;;;;;;4927084;28;20429;-77
2023/04/03 01:36:44;;;;;;;1.35;0.70;;;;;;;;;;5015690;28;20021;-77
2023/04/03 01:39:21;;;;;;;2.97;1.13;;;;;;;;;;4957736;28;20139;-77
2023/04/03 01:46:10;;;;;;;2.30;0.85;;;;;;;;;;5010382;28;20075;-77
2023/04/03 01:48:48;;;;;;;2.17;1.00;;;;;;;;;;4984723;28;20046;-77
2023/04/03 01:51:36;;;;;;;2.30;1.02;;;;;;;;;;4997346;28;20489;-77
2023/04/03 01:54:57;;;;;;;;;;;;;;;;;;;;;
2023/04/03 01:57:49;;;;;;;2.35;0.68;;;;;;;;;;5014536;28;20024;-76
2023/04/03 02:01:23;;;;;;;;;;;;;;;;;;;;;
2023/04/03 02:04:24;;;;;;;4.00;1.30;;;;;;;;;;5017028;28;20108;-78
2023/04/03 02:07:46;;;;;;;;;;;;;;;;;;;;;
2023/04/03 02:10:35;;;;;;;5.45;1.08;;;;;;;;;;5011230;28;20396;-77
2023/04/03 02:13:15;;;;;;;4.03;1.02;;;;;;;;;;4995318;28;20040;-77
2023/04/03 02:16:45;;;;;;;;;;;;;;;;;;;;;
2023/04/03 02:20:31;;;;;;;;;;;;;;;;;;;;;
2023/04/03 02:27:16;;;;;;;4.78;1.15;;;;;;;;;;4843127;29;20078;-78
2023/04/03 02:34:16;;;;;;;2.97;1.05;;;;;;;;;;4878211;29;20033;-77
2023/04/03 02:36:49;;;;;;;2.70;1.00;;;;;;;;;;4869250;29;20405;-78
2023/04/03 02:39:40;;;;;;;4.47;1.20;;;;;;;;;;4916302;29;20031;-77
2023/04/03 02:42:05;;;;;;;3.17;0.95;;;;;;;;;;4937799;29;20039;-78
2023/04/03 02:44:42;;;;;;;2.10;0.90;;;;;;;;;;4920816;29;20468;-77
2023/04/03 02:47:17;;;;;;;2.83;1.10;;;;;;;;;;4954970;28;20501;-78
2023/04/03 02:49:56;;;;;;;3.13;1.00;;;;;;;;;;5021283;28;20033;-77
2023/04/03 02:53:02;;;;;;;3.20;1.08;;;;;;;;;;5017796;28;20080;-76
2023/04/03 02:56:34;;;;;;;4.10;1.05;;;;;;;;;;5019403;28;20503;-77
2023/04/03 02:59:23;;;;;;;3.38;1.00;;;;;;;;;;5017303;28;20033;-79
2023/04/03 03:02:14;;;;;;;2.38;0.88;;;;;;;;;;5017847;28;20026;-78
2023/04/03 03:22:39;;;;;;;;;;;;;;;;;;;;;
2023/04/03 03:26:20;;;;;;;;;;;;;;;;;;;;;
2023/04/03 03:33:52;;;;;;;5.05;0.98;;;;;;;;;;4897887;29;20546;-77
2023/04/03 03:53:58;;;;;;;2.25;1.02;;;;;;;;;;4941856;28;20079;-77
2023/04/03 04:01:00;;;;;;;;;;;;;;;;;;;;;
2023/04/03 04:07:32;;;;;;;3.22;0.95;;;;;;;;;;4921487;29;20046;-78
2023/04/03 04:10:23;;;;;;;;;;;;;;;;;;;;;
2023/04/03 04:13:52;;;;;;;5.07;1.10;;;;;;;;;;4975316;28;20134;-78
2023/04/03 04:17:23;;;;;;;;;;;;;;;;;;;;;
2023/04/03 04:31:29;;;;;;;7.68;0.77;;;;;;;;;;4827927;29;20049;-78
2023/04/03 04:37:49;;;;;;;5.10;1.13;;;;;;;;;;4850444;29;20040;-79
2023/04/03 04:41:15;;;;;;;;;;;;;;;;;;;;;
2023/04/03 04:43:55;;;;;;;4.18;1.10;;;;;;;;;;4843297;29;20040;-77
2023/04/03 04:47:02;;;;;;;1.52;0.80;;;;;;;;;;4897916;29;20070;-77
2023/04/03 04:50:11;;;;;;;1.92;0.93;;;;;;;;;;4993635;28;20449;-77
2023/04/03 04:53:12;;;;;;;;;;;;;;;;;;;;;
2023/04/03 05:25:15;;;;;;;;;;;;;;;;;;;;;
2023/04/03 05:48:57;;;;;;;4.30;1.20;;;;;;;;;;4883543;29;20053;-77
2023/04/03 05:51:54;;;;;;;2.85;1.35;;;;;;;;;;4962467;28;20031;-78
2023/04/03 05:54:47;;;;;;;;;;;;;;;;;;;;;
2023/04/03 06:01:12;;;;;;;4.75;1.48;;;;;;;;;;4946521;28;20029;-77
2023/04/03 06:03:43;;;;;;;4.05;0.90;;;;;;;;;;4996724;28;20116;-77
2023/04/03 06:06:28;;;;;;;4.65;1.40;;;;;;;;;;5013486;28;20033;-77
2023/04/03 06:09:07;;;;;;;7.28;1.27;;;;;;;;;;5015869;28;20025;-77
2023/04/03 06:11:35;;;;;;;1.75;0.88;;;;;;;;;;5013538;28;20026;-77
2023/04/03 06:14:01;;;;;;;3.97;1.13;;;;;;;;;;5015401;28;20021;-77
2023/04/03 06:16:26;;;;;;;5.68;1.75;;;;;;;;;;5015150;28;20451;-77
2023/04/03 06:18:51;;;;;;;6.47;1.35;;;;;;;;;;5012973;28;20018;-77
2023/04/03 06:21:16;;;;;;;3.08;1.08;;;;;;;;;;5012940;28;20036;-77
2023/04/03 06:23:41;;;;;;;0.93;0.57;;;;;;;;;;5016599;28;20025;-77
2023/04/03 06:26:07;;;;;;;3.53;1.40;;;;;;;;;;5017351;28;20026;-77
2023/04/03 06:28:32;;;;;;;1.70;1.17;;;;;;;;;;5017445;28;20032;-77
2023/04/03 06:30:57;;;;;;;3.65;1.25;;;;;;;;;;4999651;28;20048;-78
2023/04/03 06:33:22;;;;;;;5.60;1.35;;;;;;;;;;5000505;28;20014;-77
2023/04/03 06:35:48;;;;;;;3.92;1.25;;;;;;;;;;5017599;28;20112;-77
2023/04/03 06:38:13;;;;;;;3.95;1.33;;;;;;;;;;5000095;28;20026;-77
2023/04/03 06:40:38;;;;;;;2.25;0.90;;;;;;;;;;4999262;28;20109;-77
2023/04/03 06:43:05;;;;;;;2.55;1.25;;;;;;;;;;5017234;28;20034;-76
2023/04/03 06:45:30;;;;;;;4.22;1.30;;;;;;;;;;4999328;28;20025;-73
2023/04/03 06:47:55;;;;;;;4.20;1.17;;;;;;;;;;5001466;28;20089;-77
2023/04/03 06:50:21;;;;;;;8.20;1.52;;;;;;;;;;5018992;28;20065;-77
2023/04/03 06:52:46;;;;;;;1.92;0.68;;;;;;;;;;5000513;28;20025;-77
2023/04/03 06:55:11;;;;;;;6.97;1.58;;;;;;;;;;5017312;28;20026;-77
2023/04/03 06:57:37;;;;;;;2.55;1.02;;;;;;;;;;5016912;28;20022;-77
2023/04/03 07:00:04;;;;;;;3.22;1.10;;;;;;;;;;4999293;28;20032;-77
2023/04/03 07:02:29;;;;;;;2.40;0.95;;;;;;;;;;5016790;28;20065;-77
2023/04/03 07:04:54;;;;;;;4.15;1.10;;;;;;;;;;4998865;28;20065;-76
2023/04/03 07:07:20;;;;;;;2.47;1.17;;;;;;;;;;5018534;28;20084;-77
2023/04/03 07:09:47;;;;;;;4.78;1.60;;;;;;;;;;5001238;28;20032;-78
2023/04/03 07:12:13;;;;;;;4.35;1.25;;;;;;;;;;5018574;28;20476;-76
2023/04/03 07:14:38;;;;;;;3.53;1.25;;;;;;;;;;5018602;28;20084;-77
2023/04/03 07:17:03;;;;;;;12.02;1.70;;;;;;;;;;4999710;28;20444;-78
2023/04/03 07:19:28;;;;;;;3.45;1.20;;;;;;;;;;5016928;28;20030;-76
2023/04/03 07:21:54;;;;;;;2.70;0.90;;;;;;;;;;5016303;28;20021;-77
2023/04/03 07:24:19;;;;;;;4.93;1.50;;;;;;;;;;5016320;28;20033;-77
2023/04/03 07:26:49;;;;;;;3.47;1.70;;;;;;;;;;5017007;28;20053;-76
2023/04/03 07:29:14;;;;;;;5.57;1.27;;;;;;;;;;4998615;28;20022;-77
2023/04/03 07:31:41;;;;;;;3.38;1.23;;;;;;;;;;5016643;28;20032;-77
2023/04/03 07:34:06;;;;;;;4.18;0.95;;;;;;;;;;5000094;28;20022;-77
2023/04/03 07:36:33;;;;;;;3.70;0.95;;;;;;;;;;5017646;28;20108;-77
2023/04/03 07:38:58;;;;;;;3.83;1.48;;;;;;;;;;5016172;28;20057;-77
2023/04/03 07:41:23;;;;;;;4.78;1.33;;;;;;;;;;5000517;28;20485;-78
2023/04/03 07:43:49;;;;;;;1.13;0.70;;;;;;;;;;5016338;28;20022;-77
2023/04/03 07:46:15;;;;;;;1.50;0.70;;;;;;;;;;4998153;28;20022;-77
2023/04/03 07:48:40;;;;;;;3.80;1.00;;;;;;;;;;5015886;28;20037;-77
2023/04/03 07:51:05;;;;;;;5.43;1.30;;;;;;;;;;5016072;28;20468;-77
2023/04/03 07:53:31;;;;;;;2.40;1.00;;;;;;;;;;5016036;28;20026;-77
2023/04/03 07:55:58;;;;;;;1.85;0.85;;;;;;;;;;5016109;28;20073;-77
2023/04/03 07:58:24;;;;;;;5.45;1.50;;;;;;;;;;4999487;28;20022;-77
2023/04/03 08:00:49;;;;;;;4.57;1.25;;;;;;;;;;5017583;28;20481;-77
2023/04/03 08:03:17;;;;;;;3.30;1.00;;;;;;;;;;5016204;28;20033;-77
2023/04/03 08:05:45;;;;;;;12.82;1.30;;;;;;;;;;4998745;28;20033;-77
2023/04/03 08:08:16;;;;;;;4.78;1.45;;;;;;;;;;5018009;28;20040;-77
2023/04/03 08:10:41;;;;;;;9.18;1.63;;;;;;;;;;5000747;28;20034;-78
2023/04/03 08:13:07;;;;;;;3.08;1.20;;;;;;;;;;5005075;28;20028;-78
2023/04/03 08:15:32;;;;;;;2.58;1.15;;;;;;;;;;5000443;28;20057;-77
2023/04/03 08:17:58;;;;;;;7.60;1.33;;;;;;;;;;5016355;28;20076;-77
2023/04/03 08:20:24;;;;;;;2.78;1.23;;;;;;;;;;5016219;28;20053;-77
2023/04/03 08:22:50;;;;;;;3.95;1.65;;;;;;;;;;5015208;28;20569;-77
2023/04/03 08:25:15;;;;;;;3.45;1.55;;;;;;;;;;5015971;28;20504;-78
2023/04/03 08:27:40;;;;;;;4.68;1.50;;;;;;;;;;4998180;28;20026;-77
2023/04/03 08:30:06;;;;;;;3.10;1.30;;;;;;;;;;5016080;28;20089;-78
2023/04/03 08:32:34;;;;;;;2.97;1.40;;;;;;;;;;5015498;28;20033;-77
2023/04/03 08:35:00;;;;;;;8.82;1.48;;;;;;;;;;5015446;28;20084;-77
2023/04/03 08:37:26;;;;;;;5.82;1.33;;;;;;;;;;5015979;28;20490;-77
2023/04/03 08:39:51;;;;;;;3.40;1.15;;;;;;;;;;5017617;28;20028;-77
2023/04/03 08:42:35;;;;;;;4.28;1.38;;;;;;;;;;5017718;28;20026;-77
2023/04/03 08:45:42;;;;;;;4.97;1.48;;;;;;;;;;5016385;28;20088;-77
2023/04/03 08:48:36;;;;;;;3.28;1.20;;;;;;;;;;4936833;29;20084;-77
2023/04/03 08:51:06;;;;;;;4.38;1.33;;;;;;;;;;4936931;29;20446;-78
2023/04/03 08:53:35;;;;;;;3.67;1.33;;;;;;;;;;5012499;28;20030;-76
2023/04/03 08:56:07;;;;;;;2.45;1.00;;;;;;;;;;5016337;28;20022;-77
2023/04/03 08:58:45;;;;;;;4.10;1.08;;;;;;;;;;5015292;28;20085;-77
2023/04/03 09:01:21;;;;;;;1.85;0.95;;;;;;;;;;4998442;28;20400;-77
2023/04/03 09:03:46;;;;;;;1.85;1.10;;;;;;;;;;5016085;28;20101;-78
2023/04/03 09:06:29;;;;;;;2.63;1.10;;;;;;;;;;5015958;28;20057;-78
2023/04/03 09:09:26;;;;;;;4.15;1.30;;;;;;;;;;5014737;28;20036;-76
2023/04/03 09:12:18;;;;;;;3.40;0.90;;;;;;;;;;5014561;28;20022;-76
2023/04/03 09:15:08;;;;;;;4.40;1.40;;;;;;;;;;5015905;28;20025;-76
2023/04/03 09:17:33;;;;;;;1.63;0.90;;;;;;;;;;5014848;28;20104;-77
2023/04/03 09:20:05;;;;;;;4.57;1.20;;;;;;;;;;5014381;28;20061;-78
2023/04/03 09:22:33;;;;;;;4.45;1.27;;;;;;;;;;4997506;28;20026;-79
2023/04/03 09:25:15;;;;;;;5.13;1.25;;;;;;;;;;5017503;28;20389;-77
2023/04/03 09:27:40;;;;;;;3.42;1.15;;;;;;;;;;5014693;28;20402;-77
2023/04/03 09:30:06;;;;;;;3.90;1.20;;;;;;;;;;5015251;28;20037;-78
2023/04/03 09:32:34;;;;;;;1.70;1.00;;;;;;;;;;4998192;28;20033;-77
2023/04/03 09:35:10;;;;;;;4.30;1.25;;;;;;;;;;4997475;28;20041;-82
2023/04/03 09:37:38;;;;;;;6.63;1.20;;;;;;;;;;5016313;28;20519;-77
2023/04/03 09:40:05;;;;;;;2.20;0.90;;;;;;;;;;4997769;28;20489;-79
2023/04/03 09:42:31;;;;;;;3.40;1.00;;;;;;;;;;5014610;28;20048;-78
2023/04/03 09:45:02;;;;;;;3.40;1.20;;;;;;;;;;5014764;28;20034;-78
2023/04/03 09:47:30;;;;;;;2.65;1.10;;;;;;;;;;5015566;28;20485;-78
2023/04/03 09:50:19;;;;;;;5.20;1.13;;;;;;;;;;5016406;28;20421;-77
2023/04/03 09:52:47;;;;;;;3.60;1.00;;;;;;;;;;5015382;28;20025;-78
2023/04/03 09:55:26;;;;;;;1.63;0.88;;;;;;;;;;5015555;28;20025;-76
2023/04/03 09:57:52;;;;;;;2.78;0.90;;;;;;;;;;5014803;28;20079;-77
2023/04/03 10:00:25;;;;;;;2.67;1.05;;;;;;;;;;4995772;28;20060;-76
2023/04/03 10:02:54;;;;;;;1.25;0.47;;;;;;;;;;5013382;28;20017;-77
2023/04/03 10:05:36;;;;;;;3.83;1.00;;;;;;;;;;4995787;28;20032;-76
2023/04/03 10:08:13;;;;;;;2.40;0.63;;;;;;;;;;5013577;28;20029;-76
2023/04/03 10:10:45;;;;;;;2.40;1.00;;;;;;;;;;5013171;28;20026;-77
2023/04/03 10:13:18;;;;;;;1.55;0.57;;;;;;;;;;5013177;28;20030;-77
2023/04/03 10:15:48;;;;;;;1.55;0.70;;;;;;;;;;4995484;28;20036;-77
2023/04/03 10:18:34;;;;;;;2.25;0.68;;;;;;;;;;5013427;28;20410;-76
2023/04/03 10:21:06;;;;;;;2.15;0.70;;;;;;;;;;4995388;28;20026;-76
2023/04/03 10:23:38;;;;;;;2.42;0.80;;;;;;;;;;4996282;28;20049;-77
2023/04/03 10:26:15;;;;;;;2.13;0.70;;;;;;;;;;5013581;28;20477;-77
2023/04/03 10:28:48;;;;;;;2.33;0.85;;;;;;;;;;5013060;28;20022;-78
2023/04/03 10:31:17;;;;;;;2.88;0.95;;;;;;;;;;5013620;28;20386;-76
2023/04/03 10:34:17;;;;;;;4.93;1.00;;;;;;;;;;5013278;28;20034;-77
2023/04/03 10:37:02;;;;;;;3.90;0.90;;;;;;;;;;5013044;28;20053;-76
2023/04/03 10:39:52;;;;;;;1.05;0.47;;;;;;;;;;5013559;28;20461;-77
2023/04/03 10:42:20;;;;;;;1.35;0.60;;;;;;;;;;5011615;28;20396;-77
2023/04/03 10:45:15;;;;;;;2.20;0.90;;;;;;;;;;5013010;28;20035;-76
2023/04/03 10:48:11;;;;;;;1.95;0.75;;;;;;;;;;5012866;28;20117;-77
2023/04/03 10:50:58;;;;;;;1.88;0.65;;;;;;;;;;4984989;28;20064;-76
2023/04/03 10:53:35;;;;;;;1.20;0.60;;;;;;;;;;4995516;28;20100;-77
2023/04/03 10:56:20;;;;;;;1.70;0.85;;;;;;;;;;5015686;28;20495;-81
2023/04/03 10:58:50;;;;;;;1.92;0.65;;;;;;;;;;4996418;28;20026;-78
2023/04/03 11:01:20;;;;;;;5.45;0.90;;;;;;;;;;5012871;28;20057;-77
2023/04/03 11:03:50;;;;;;;3.13;0.80;;;;;;;;;;5013126;28;20485;-76
2023/04/03 11:06:19;;;;;;;2.05;0.75;;;;;;;;;;5013467;28;20057;-77
2023/04/03 11:08:51;;;;;;;1.23;0.60;;;;;;;;;;5013473;28;20107;-78
2023/04/03 11:11:21;;;;;;;3.28;0.68;;;;;;;;;;5016874;28;20085;-77
2023/04/03 11:13:54;;;;;;;1.95;0.63;;;;;;;;;;5015380;28;20029;-79
2023/04/03 11:16:25;;;;;;;2.72;0.80;;;;;;;;;;4998833;28;20083;-78
2023/04/03 11:18:57;;;;;;;1.00;0.60;;;;;;;;;;5016496;28;20014;-77
2023/04/03 11:21:30;;;;;;;4.05;0.70;;;;;;;;;;4999596;28;20026;-77
2023/04/03 11:23:58;;;;;;;1.25;0.68;;;;;;;;;;5016380;28;20026;-77
2023/04/03 11:26:29;;;;;;;0.90;0.45;;;;;;;;;;4998522;28;20120;-77
2023/04/03 11:29:03;;;;;;;1.27;0.80;;;;;;;;;;5016426;28;20026;-76
2023/04/03 11:32:06;;;;;;;2.30;0.70;;;;;;;;;;4998443;28;20026;-76
2023/04/03 11:34:40;;;;;;;1.65;0.60;;;;;;;;;;4999019;28;20432;-77
2023/04/03 11:37:15;;;;;;;1.58;0.47;;;;;;;;;;5016266;28;20025;-76
2023/04/03 11:39:49;;;;;;;0.98;0.38;;;;;;;;;;4998235;28;20030;-76
2023/04/03 11:42:17;;;;;;;3.58;0.98;;;;;;;;;;5016364;28;20028;-76
2023/04/03 11:44:43;;;;;;;4.05;0.70;;;;;;;;;;5015762;28;20029;-76
2023/04/03 11:47:31;;;;;;;3.65;1.23;;;;;;;;;;5015835;28;20033;-76
2023/04/03 11:50:03;;;;;;;1.35;0.82;;;;;;;;;;4998730;28;20037;-75
2023/04/03 11:52:37;;;;;;;2.20;1.17;;;;;;;;;;5015602;28;20030;-77
2023/04/03 11:55:23;;;;;;;;;;;;;;;;;;4998376;28;20021;-77
2023/04/03 11:57:57;;;;;;;2.85;0.77;;;;;;;;;;4998745;28;20268;-77
2023/04/03 12:00:49;;;;;;;2.20;0.82;;;;;;;;;;4997727;28;20029;-77
2023/04/03 12:03:33;;;;;;;1.17;0.65;;;;;;;;;;5015607;28;20024;-77
2023/04/03 12:06:04;;;;;;;1.23;0.70;;;;;;;;;;5015414;28;20033;-76
2023/04/03 12:08:32;;;;;;;1.58;0.65;;;;;;;;;;5015223;28;20230;-76
2023/04/03 12:11:12;;;;;;;0.80;0.57;;;;;;;;;;5015064;28;20417;-76
2023/04/03 12:13:53;;;;;;;3.65;1.02;;;;;;;;;;5015278;28;20083;-76
2023/04/03 12:16:37;;;;;;;2.28;0.77;;;;;;;;;;5015603;28;20064;-75
2023/04/03 12:19:03;;;;;;;2.45;0.90;;;;;;;;;;5014823;28;20068;-76
2023/04/03 12:21:32;;;;;;;2.67;0.90;;;;;;;;;;5014679;28;20029;-77
2023/04/03 12:24:03;;;;;;;1.58;0.82;;;;;;;;;;5014827;28;20404;-76
2023/04/03 12:26:46;;;;;;;1.92;0.90;;;;;;;;;;5015256;28;20370;-76
2023/04/03 12:29:23;;;;;;;1.80;0.80;;;;;;;;;;5015116;28;20100;-76
2023/04/03 12:32:10;;;;;;;2.60;0.90;;;;;;;;;;5015024;28;20100;-76
2023/04/03 12:34:44;;;;;;;2.60;0.63;;;;;;;;;;5014549;28;20030;-76
2023/04/03 12:37:43;;;;;;;1.05;0.50;;;;;;;;;;5014899;28;20025;-79
2023/04/03 12:40:28;;;;;;;2.92;0.77;;;;;;;;;;5013484;28;20034;-76
2023/04/03 12:43:09;;;;;;;;;;;;;;;;;;5014971;28;20048;-76
2023/04/03 12:46:01;;;;;;;3.85;0.70;;;;;;;;;;5015098;28;20047;-77
2023/04/03 12:48:29;;;;;;;1.95;0.98;;;;;;;;;;5005707;28;20041;-76
2023/04/03 12:50:57;;;;;;;1.15;0.60;;;;;;;;;;5014563;28;20030;-76
2023/04/03 12:53:26;;;;;;;2.80;0.90;;;;;;;;;;4997055;28;20096;-76
2023/04/03 12:55:56;;;;;;;1.20;0.80;;;;;;;;;;5014927;28;20026;-76
2023/04/03 12:58:27;;;;;;;2.78;1.15;;;;;;;;;;5014159;28;20022;-75
2023/04/03 13:01:03;;;;;;;2.80;1.00;;;;;;;;;;4996795;28;20036;-76
2023/04/03 13:03:29;;;;;;;4.13;0.80;;;;;;;;;;5014284;28;20153;-76
2023/04/03 13:06:03;;;;;;;2.65;0.95;;;;;;;;;;4996649;28;20033;-77
2023/04/03 13:08:30;;;;;;;2.70;1.00;;;;;;;;;;5014707;28;20025;-76
2023/04/03 13:11:09;;;;;;;2.67;0.85;;;;;;;;;;4996790;28;20034;-75
2023/04/03 13:13:35;;;;;;;2.67;0.88;;;;;;;;;;4996680;28;20033;-77
2023/04/03 13:16:09;;;;;;;5.70;0.93;;;;;;;;;;5014303;28;20022;-76
2023/04/03 13:18:35;;;;;;;6.50;1.20;;;;;;;;;;4996544;28;20022;-76
2023/04/03 13:21:07;;;;;;;2.30;1.20;;;;;;;;;;5013845;28;20034;-75
2023/04/03 13:23:35;;;;;;;2.28;0.82;;;;;;;;;;5013912;28;20029;-76
2023/04/03 13:26:03;;;;;;;2.35;1.05;;;;;;;;;;4996208;28;20116;-75
2023/04/03 13:28:30;;;;;;;0.85;0.70;;;;;;;;;;5013601;28;20025;-77
2023/04/03 13:31:13;;;;;;;2.80;1.10;;;;;;;;;;5013712;28;20053;-74
2023/04/03 13:33:52;;;;;;;1.90;0.80;;;;;;;;;;4995875;28;20485;-76
2023/04/03 13:36:21;;;;;;;2.15;1.20;;;;;;;;;;5013789;28;20033;-77
2023/04/03 13:39:02;;;;;;;1.52;1.00;;;;;;;;;;5013628;28;20021;-75
2023/04/03 13:41:39;;;;;;;2.63;0.85;;;;;;;;;;4995691;28;20034;-76
2023/04/03 13:44:23;;;;;;;0.70;0.63;;;;;;;;;;4995876;28;20067;-76
2023/04/03 13:46:50;;;;;;;1.38;0.93;;;;;;;;;;5013374;28;20076;-76
2023/04/03 13:49:36;;;;;;;2.08;0.85;;;;;;;;;;5013326;28;20064;-76
2023/04/03 13:52:22;;;;;;;1.27;0.70;;;;;;;;;;4995984;28;20030;-75
2023/04/03 13:54:54;;;;;;;2.95;1.20;;;;;;;;;;4995785;28;20033;-75
2023/04/03 13:57:20;;;;;;;1.75;0.90;;;;;;;;;;5013535;28;20076;-76
2023/04/03 13:59:45;;;;;;;3.22;1.10;;;;;;;;;;5013743;28;20052;-76
2023/04/03 14:02:17;;;;;;;1.60;0.80;;;;;;;;;;5013663;28;20022;-77
2023/04/03 14:04:44;;;;;;;2.10;0.70;;;;;;;;;;5013366;28;20543;-75
2023/04/03 14:07:14;;;;;;;2.97;0.93;;;;;;;;;;5013760;28;20401;-76
2023/04/03 14:09:40;;;;;;;2.45;0.82;;;;;;;;;;5013272;28;20041;-75
2023/04/03 14:12:27;;;;;;;1.98;0.82;;;;;;;;;;5013089;28;20026;-76
2023/04/03 14:14:53;;;;;;;3.35;1.10;;;;;;;;;;4995227;28;20049;-76
2023/04/03 14:17:22;;;;;;;4.35;1.45;;;;;;;;;;5013340;28;20026;-75
2023/04/03 14:19:50;;;;;;;3.22;0.90;;;;;;;;;;5013143;28;20037;-76
2023/04/03 14:22:17;;;;;;;3.13;0.77;;;;;;;;;;5013373;28;20026;-76
2023/04/03 14:24:43;;;;;;;1.67;0.70;;;;;;;;;;5013193;28;20077;-75
2023/04/03 14:27:21;;;;;;;3.20;0.75;;;;;;;;;;5013215;28;20061;-75
2023/04/03 14:29:48;;;;;;;2.90;1.00;;;;;;;;;;5013638;28;20118;-76
2023/04/03 14:32:15;;;;;;;1.95;0.80;;;;;;;;;;4995614;28;20485;-76
2023/04/03 14:34:42;;;;;;;2.40;0.90;;;;;;;;;;4995517;28;20041;-76
2023/04/03 14:37:14;;;;;;;1.92;0.82;;;;;;;;;;4995667;28;20025;-76
2023/04/03 14:39:40;;;;;;;3.13;0.93;;;;;;;;;;5013609;28;20025;-76
2023/04/03 14:42:06;;;;;;;1.65;0.80;;;;;;;;;;5014644;28;20030;-78
2023/04/03 14:44:31;;;;;;;1.00;0.73;;;;;;;;;;5018734;28;20041;-75
2023/04/03 14:46:56;;;;;;;1.80;0.85;;;;;;;;;;5000957;28;20040;-76
2023/04/03 14:49:26;;;;;;;2.85;0.85;;;;;;;;;;5019093;28;20385;-75
2023/04/03 14:51:52;;;;;;;2.33;0.88;;;;;;;;;;5019240;28;20021;-76
2023/04/03 14:54:25;;;;;;;2.10;0.65;;;;;;;;;;5018985;28;20033;-75
2023/04/03 14:56:50;;;;;;;2.63;0.75;;;;;;;;;;5018888;28;20405;-76
2023/04/03 14:59:17;;;;;;;4.03;1.00;;;;;;;;;;5001429;28;20018;-75
2023/04/03 15:01:42;;;;;;;3.42;0.88;;;;;;;;;;5018384;28;20029;-75
2023/04/03 15:04:15;;;;;;;0.98;0.50;;;;;;;;;;5018529;28;20558;-74
2023/04/03 15:06:44;;;;;;;;;;;;;;;;;;5019151;28;20045;-74
2023/04/03 15:09:24;;;;;;;0.43;0.40;;;;;;;;;;5019091;28;20373;-75
2023/04/03 15:11:51;;;;;;;3.40;1.08;;;;;;;;;;5020017;28;20037;-76
2023/04/03 15:14:17;;;;;;;2.35;0.93;;;;;;;;;;5019383;28;20029;-74
2023/04/03 15:16:43;;;;;;;0.63;0.45;;;;;;;;;;5002094;28;20028;-76
2023/04/03 15:19:09;;;;;;;2.22;1.00;;;;;;;;;;5001579;28;20049;-75
2023/04/03 15:21:35;;;;;;;1.48;0.75;;;;;;;;;;5001385;28;20041;-76
2023/04/03 15:24:00;;;;;;;2.80;1.00;;;;;;;;;;5019208;28;20026;-75
2023/04/03 15:26:26;;;;;;;2.35;0.90;;;;;;;;;;5019002;28;20077;-75
2023/04/03 15:28:51;;;;;;;4.30;1.15;;;;;;;;;;5018970;28;20120;-74
2023/04/03 15:31:16;;;;;;;4.03;1.23;;;;;;;;;;5018731;28;20034;-75
2023/04/03 15:33:41;;;;;;;1.95;0.90;;;;;;;;;;5019004;28;20496;-75
2023/04/03 15:36:07;;;;;;;1.27;0.75;;;;;;;;;;5018233;28;20428;-75
2023/04/03 15:38:33;;;;;;;2.50;1.05;;;;;;;;;;5019043;28;20030;-75
2023/04/03 15:40:58;;;;;;;3.20;0.88;;;;;;;;;;5017986;28;20064;-75
2023/04/03 15:43:23;;;;;;;2.17;0.70;;;;;;;;;;5018535;28;20501;-76
2023/04/03 15:45:50;;;;;;;1.98;0.95;;;;;;;;;;5000790;28;20869;-75
2023/04/03 15:48:15;;;;;;;1.00;0.60;;;;;;;;;;5019166;28;20030;-74
2023/04/03 15:50:41;;;;;;;0.60;0.57;;;;;;;;;;5018447;28;20057;-74
2023/04/03 15:53:07;;;;;;;0.60;0.52;;;;;;;;;;5019100;28;20061;-75
2023/04/03 15:55:34;;;;;;;4.35;1.10;;;;;;;;;;4999774;28;20021;-78
2023/04/03 15:58:01;;;;;;;2.67;0.90;;;;;;;;;;5019249;28;20172;-75
2023/04/03 16:00:26;;;;;;;2.70;0.65;;;;;;;;;;5019676;28;20025;-74
2023/04/03 16:02:55;;;;;;;2.22;0.60;;;;;;;;;;5019121;28;20030;-74
2023/04/03 16:05:21;;;;;;;1.95;0.70;;;;;;;;;;5001745;28;20117;-74
2023/04/03 16:07:46;;;;;;;0.30;0.30;;;;;;;;;;5019190;28;20481;-75
2023/04/03 16:10:13;;;;;;;1.50;0.45;;;;;;;;;;5001525;28;20029;-75
2023/04/03 16:12:39;;;;;;;2.05;0.70;;;;;;;;;;5018876;28;20040;-74
2023/04/03 16:15:05;;;;;;;1.73;0.70;;;;;;;;;;5019973;28;20049;-74
2023/04/03 16:17:32;;;;;;;1.08;0.73;;;;;;;;;;5020008;28;20045;-74
2023/04/03 16:19:58;;;;;;;1.40;0.80;;;;;;;;;;5002661;28;20076;-75
2023/04/03 16:22:25;;;;;;;1.77;0.80;;;;;;;;;;5001835;28;20029;-74
2023/04/03 16:24:50;;;;;;;2.35;0.80;;;;;;;;;;5017895;28;20472;-76
2023/04/03 16:27:16;;;;;;;3.33;1.30;;;;;;;;;;5017971;28;20021;-75
2023/04/03 16:29:41;;;;;;;1.55;0.65;;;;;;;;;;5019577;28;20021;-75
2023/04/03 16:32:07;;;;;;;1.88;0.90;;;;;;;;;;5020218;28;20026;-75
2023/04/03 16:34:33;;;;;;;3.05;1.05;;;;;;;;;;5019726;28;20061;-74
2023/04/03 16:36:58;;;;;;;1.08;0.82;;;;;;;;;;4999536;28;20030;-73
2023/04/03 16:39:23;;;;;;;2.63;0.95;;;;;;;;;;5017767;28;20481;-78
2023/04/03 16:41:49;;;;;;;3.17;1.00;;;;;;;;;;5015652;28;20585;-74
2023/04/03 16:44:14;;;;;;;1.42;0.90;;;;;;;;;;4996280;28;20034;-74
2023/04/03 16:46:39;;;;;;;1.50;0.70;;;;;;;;;;4997028;28;20037;-75
2023/04/03 16:49:04;;;;;;;5.23;0.60;;;;;;;;;;5015605;28;20283;-77
2023/04/03 16:51:31;;;;;;;0.70;0.70;;;;;;;;;;5016434;28;20274;-74
2023/04/03 16:53:56;;;;;;;2.35;0.98;;;;;;;;;;5017002;28;20052;-75
2023/04/03 16:56:22;;;;;;;2.72;1.20;;;;;;;;;;5016407;28;20105;-77
2023/04/03 16:58:47;;;;;;;1.90;0.70;;;;;;;;;;5017742;28;20024;-75
2023/04/03 17:01:15;;;;;;;2.65;1.00;;;;;;;;;;4997953;28;20119;-75
2023/04/03 17:03:40;;;;;;;1.98;0.60;;;;;;;;;;5015276;28;20030;-76
2023/04/03 17:06:05;;;;;;;1.85;0.80;;;;;;;;;;5014785;28;20542;-75
2023/04/03 17:08:31;;;;;;;1.67;0.80;;;;;;;;;;5013872;28;20034;-75
2023/04/03 17:10:56;;;;;;;1.58;0.93;;;;;;;;;;5015122;28;20434;-74
2023/04/03 17:13:21;;;;;;;3.20;0.88;;;;;;;;;;5015922;28;20033;-74
2023/04/03 17:15:47;;;;;;;2.85;0.60;;;;;;;;;;5015819;28;20026;-76
2023/04/03 17:18:12;;;;;;;3.40;1.00;;;;;;;;;;5016071;28;20064;-75
2023/04/03 17:20:38;;;;;;;2.15;1.05;;;;;;;;;;4999962;28;20033;-75
2023/04/03 17:23:04;;;;;;;1.52;0.80;;;;;;;;;;5016554;28;20021;-76
2023/04/03 17:25:29;;;;;;;3.00;0.90;;;;;;;;;;5018062;28;20033;-75
2023/04/03 17:27:55;;;;;;;3.08;0.80;;;;;;;;;;5018751;28;20022;-75
2023/04/03 17:30:21;;;;;;;2.60;1.10;;;;;;;;;;5018445;28;20021;-75
2023/04/03 17:32:46;;;;;;;2.72;1.05;;;;;;;;;;5018089;28;20084;-74
2023/04/03 17:35:11;;;;;;;1.47;0.90;;;;;;;;;;4999530;28;20061;-80
2023/04/03 17:37:36;;;;;;;3.67;1.20;;;;;;;;;;5017531;28;20263;-76
2023/04/03 17:40:02;;;;;;;4.95;1.30;;;;;;;;;;4999655;28;20037;-76
2023/04/03 17:42:30;;;;;;;5.75;1.10;;;;;;;;;;5017774;28;20092;-76
2023/04/03 17:44:55;;;;;;;2.17;0.90;;;;;;;;;;4999757;28;20025;-76
2023/04/03 17:47:20;;;;;;;2.72;0.90;;;;;;;;;;5000000;28;20025;-76
2023/04/03 17:49:45;;;;;;;4.82;1.10;;;;;;;;;;5017162;28;20125;-76
2023/04/03 17:52:11;;;;;;;3.70;1.05;;;;;;;;;;5016941;28;20160;-76
2023/04/03 17:54:36;;;;;;;1.90;1.23;;;;;;;;;;5015976;28;20080;-75
2023/04/03 17:57:03;;;;;;;2.78;0.93;;;;;;;;;;5016692;28;20034;-76
2023/04/03 17:59:28;;;;;;;2.83;1.20;;;;;;;;;;5016896;28;20447;-75
2023/04/03 18:01:54;;;;;;;2.30;1.25;;;;;;;;;;4998205;28;20026;-76
2023/04/03 18:04:19;;;;;;;1.90;1.10;;;;;;;;;;4997467;28;20029;-79
2023/04/03 18:06:50;;;;;;;2.90;1.20;;;;;;;;;;4999272;28;20045;-75
2023/04/03 18:09:18;;;;;;;1.95;1.02;;;;;;;;;;5014585;28;20022;-75
2023/04/03 18:11:46;;;;;;;3.08;1.08;;;;;;;;;;5012838;28;20080;-75
2023/04/03 18:14:15;;;;;;;3.20;1.20;;;;;;;;;;5014770;28;20163;-75
2023/04/03 18:16:41;;;;;;;2.28;1.15;;;;;;;;;;5015492;28;20112;-75
2023/04/03 18:19:07;;;;;;;3.38;1.10;;;;;;;;;;5013539;28;20101;-75
2023/04/03 18:21:33;;;;;;;3.00;1.20;;;;;;;;;;4996801;28;20040;-75
2023/04/03 18:23:59;;;;;;;2.03;1.13;;;;;;;;;;5014209;28;20030;-75
2023/04/03 18:26:27;;;;;;;4.85;1.48;;;;;;;;;;4996697;28;20395;-75
2023/04/03 18:28:57;;;;;;;2.42;1.30;;;;;;;;;;5014256;28;20057;-74
2023/04/03 18:31:25;;;;;;;4.13;1.50;;;;;;;;;;5013841;28;20061;-74
2023/04/03 18:33:53;;;;;;;2.30;1.30;;;;;;;;;;5013045;28;20030;-74
2023/04/03 18:36:18;;;;;;;3.08;1.20;;;;;;;;;;5013622;28;20034;-75
2023/04/03 18:38:44;;;;;;;4.68;1.60;;;;;;;;;;5014347;28;20026;-75
2023/04/03 18:41:09;;;;;;;5.10;1.30;;;;;;;;;;5013992;28;20026;-76
2023/04/03 18:43:35;;;;;;;5.55;2.13;;;;;;;;;;5012678;28;20022;-77
2023/04/03 18:46:00;;;;;;;4.78;1.60;;;;;;;;;;5013999;28;20033;-74